sensor_id;sensor_type;location;lat;lon;timestamp;temperature;humidity
70170;DHT22;57543;45.442;9.212;2023-12-07T00:02:42;4.81;76.78
70170;DHT22;57543;45.442;9.212;2023-12-07T00:05:46;4.81;76.82
70170;DHT22;57543;45.442;9.212;2023-12-07T00:08:50;4.74;77.11
70170;DHT22;57543;45.442;9.212;2023-12-07T00:11:54;4.72;77.20
70170;DHT22;57543;45.442;9.212;2023-12-07T00:14:59;4.69;77.07
70170;DHT22;57543;45.442;9.212;2023-12-07T00:18:03;4.71;76.97
70170;DHT22;57543;45.442;9.212;2023-12-07T00:21:10;4.54;77.42
70170;DHT22;57543;45.442;9.212;2023-12-07T00:24:14;4.55;77.46
70170;DHT22;57543;45.442;9.212;2023-12-07T00:27:17;4.60;77.52
70170;DHT22;57543;45.442;9.212;2023-12-07T00:30:21;4.68;77.57
70170;DHT22;57543;45.442;9.212;2023-12-07T00:33:25;4.74;77.60
70170;DHT22;57543;45.442;9.212;2023-12-07T00:36:31;4.67;77.63
70170;DHT22;57543;45.442;9.212;2023-12-07T00:39:34;4.68;77.66
70170;DHT22;57543;45.442;9.212;2023-12-07T00:42:38;4.71;77.76
70170;DHT22;57543;45.442;9.212;2023-12-07T00:45:44;4.76;77.78
70170;DHT22;57543;45.442;9.212;2023-12-07T00:48:50;4.86;77.65
70170;DHT22;57543;45.442;9.212;2023-12-07T00:51:53;4.89;77.63
70170;DHT22;57543;45.442;9.212;2023-12-07T00:54:57;4.93;77.49
70170;DHT22;57543;45.442;9.212;2023-12-07T00:58:01;4.88;77.31
70170;DHT22;57543;45.442;9.212;2023-12-07T01:01:07;4.96;77.20
70170;DHT22;57543;45.442;9.212;2023-12-07T01:04:15;5.00;77.06
70170;DHT22;57543;45.442;9.212;2023-12-07T01:07:22;5.12;76.77
70170;DHT22;57543;45.442;9.212;2023-12-07T01:10:26;5.15;76.72
70170;DHT22;57543;45.442;9.212;2023-12-07T01:13:30;5.16;76.62
70170;DHT22;57543;45.442;9.212;2023-12-07T01:16:36;4.88;77.34
70170;DHT22;57543;45.442;9.212;2023-12-07T01:19:40;5.00;76.66
70170;DHT22;57543;45.442;9.212;2023-12-07T01:22:43;5.17;76.23
70170;DHT22;57543;45.442;9.212;2023-12-07T01:26:05;5.19;75.51
70170;DHT22;57543;45.442;9.212;2023-12-07T01:29:10;5.09;75.23
70170;DHT22;57543;45.442;9.212;2023-12-07T01:32:14;5.03;74.98
70170;DHT22;57543;45.442;9.212;2023-12-07T01:35:18;4.91;75.49
70170;DHT22;57543;45.442;9.212;2023-12-07T01:38:21;4.71;75.89
70170;DHT22;57543;45.442;9.212;2023-12-07T01:41:25;4.53;76.79
70170;DHT22;57543;45.442;9.212;2023-12-07T01:44:28;4.53;77.24
70170;DHT22;57543;45.442;9.212;2023-12-07T01:47:33;4.50;77.48
70170;DHT22;57543;45.442;9.212;2023-12-07T01:50:38;4.43;77.14
70170;DHT22;57543;45.442;9.212;2023-12-07T01:53:42;4.33;76.89
70170;DHT22;57543;45.442;9.212;2023-12-07T01:56:46;4.30;77.20
70170;DHT22;57543;45.442;9.212;2023-12-07T01:59:52;4.30;77.27
70170;DHT22;57543;45.442;9.212;2023-12-07T02:02:55;4.23;77.21
70170;DHT22;57543;45.442;9.212;2023-12-07T02:05:59;4.23;77.43
70170;DHT22;57543;45.442;9.212;2023-12-07T02:09:04;4.32;77.65
70170;DHT22;57543;45.442;9.212;2023-12-07T02:12:07;4.41;77.50
70170;DHT22;57543;45.442;9.212;2023-12-07T02:15:13;4.53;77.43
70170;DHT22;57543;45.442;9.212;2023-12-07T02:18:30;4.68;77.00
70170;DHT22;57543;45.442;9.212;2023-12-07T02:21:41;4.67;76.68
70170;DHT22;57543;45.442;9.212;2023-12-07T02:25:03;4.60;76.54
70170;DHT22;57543;45.442;9.212;2023-12-07T02:28:07;4.27;77.18
70170;DHT22;57543;45.442;9.212;2023-12-07T02:31:11;4.33;77.43
70170;DHT22;57543;45.442;9.212;2023-12-07T02:34:15;4.27;77.39
70170;DHT22;57543;45.442;9.212;2023-12-07T02:37:19;3.99;77.61
70170;DHT22;57543;45.442;9.212;2023-12-07T02:40:25;3.74;78.46
70170;DHT22;57543;45.442;9.212;2023-12-07T02:43:35;3.74;78.24
70170;DHT22;57543;45.442;9.212;2023-12-07T02:46:38;3.64;78.60
70170;DHT22;57543;45.442;9.212;2023-12-07T02:49:42;3.60;79.04
70170;DHT22;57543;45.442;9.212;2023-12-07T02:52:46;3.65;79.03
70170;DHT22;57543;45.442;9.212;2023-12-07T02:55:50;3.85;78.62
70170;DHT22;57543;45.442;9.212;2023-12-07T02:58:53;4.02;78.43
70170;DHT22;57543;45.442;9.212;2023-12-07T03:01:57;4.09;78.26
70170;DHT22;57543;45.442;9.212;2023-12-07T03:05:00;3.96;78.30
70170;DHT22;57543;45.442;9.212;2023-12-07T03:08:04;4.02;78.24
70170;DHT22;57543;45.442;9.212;2023-12-07T03:11:07;4.05;78.14
70170;DHT22;57543;45.442;9.212;2023-12-07T03:14:11;4.16;78.02
70170;DHT22;57543;45.442;9.212;2023-12-07T03:17:15;4.24;77.71
70170;DHT22;57543;45.442;9.212;2023-12-07T03:20:18;4.17;77.38
70170;DHT22;57543;45.442;9.212;2023-12-07T03:23:24;4.24;77.05
70170;DHT22;57543;45.442;9.212;2023-12-07T03:26:28;4.23;76.87
70170;DHT22;57543;45.442;9.212;2023-12-07T03:29:32;4.21;76.74
70170;DHT22;57543;45.442;9.212;2023-12-07T03:32:36;4.32;76.31
70170;DHT22;57543;45.442;9.212;2023-12-07T03:35:39;4.36;76.07
70170;DHT22;57543;45.442;9.212;2023-12-07T03:38:43;4.36;75.97
70170;DHT22;57543;45.442;9.212;2023-12-07T03:41:47;4.24;75.95
70170;DHT22;57543;45.442;9.212;2023-12-07T03:44:51;4.33;75.92
70170;DHT22;57543;45.442;9.212;2023-12-07T03:47:54;4.29;75.79
70170;DHT22;57543;45.442;9.212;2023-12-07T03:50:58;4.32;75.50
70170;DHT22;57543;45.442;9.212;2023-12-07T03:54:03;4.30;75.54
70170;DHT22;57543;45.442;9.212;2023-12-07T03:57:06;4.26;75.45
70170;DHT22;57543;45.442;9.212;2023-12-07T04:00:26;4.29;75.40
70170;DHT22;57543;45.442;9.212;2023-12-07T04:03:32;4.09;75.57
70170;DHT22;57543;45.442;9.212;2023-12-07T04:06:36;3.82;75.98
70170;DHT22;57543;45.442;9.212;2023-12-07T04:09:39;3.75;76.50
70170;DHT22;57543;45.442;9.212;2023-12-07T04:12:42;3.85;76.71
70170;DHT22;57543;45.442;9.212;2023-12-07T04:15:46;3.91;76.62
70170;DHT22;57543;45.442;9.212;2023-12-07T04:18:52;3.79;76.67
70170;DHT22;57543;45.442;9.212;2023-12-07T04:21:55;3.63;77.07
70170;DHT22;57543;45.442;9.212;2023-12-07T04:24:59;3.71;77.12
70170;DHT22;57543;45.442;9.212;2023-12-07T04:28:03;3.84;76.94
70170;DHT22;57543;45.442;9.212;2023-12-07T04:31:07;3.95;76.63
70170;DHT22;57543;45.442;9.212;2023-12-07T04:34:10;3.95;76.46
70170;DHT22;57543;45.442;9.212;2023-12-07T04:37:14;3.79;76.47
70170;DHT22;57543;45.442;9.212;2023-12-07T04:40:18;3.63;76.76
70170;DHT22;57543;45.442;9.212;2023-12-07T04:43:21;3.58;77.25
70170;DHT22;57543;45.442;9.212;2023-12-07T04:46:24;3.70;77.23
70170;DHT22;57543;45.442;9.212;2023-12-07T04:49:28;3.64;77.10
70170;DHT22;57543;45.442;9.212;2023-12-07T04:52:32;3.58;77.27
70170;DHT22;57543;45.442;9.212;2023-12-07T04:55:36;3.58;77.05
70170;DHT22;57543;45.442;9.212;2023-12-07T04:58:39;3.48;77.11
70170;DHT22;57543;45.442;9.212;2023-12-07T05:01:43;3.48;76.77
70170;DHT22;57543;45.442;9.212;2023-12-07T05:04:47;3.29;76.99
70170;DHT22;57543;45.442;9.212;2023-12-07T05:07:50;3.18;77.66
70170;DHT22;57543;45.442;9.212;2023-12-07T05:10:54;3.29;77.72
70170;DHT22;57543;45.442;9.212;2023-12-07T05:13:57;3.44;77.47
70170;DHT22;57543;45.442;9.212;2023-12-07T05:17:02;3.22;77.44
70170;DHT22;57543;45.442;9.212;2023-12-07T05:20:06;3.05;78.29
70170;DHT22;57543;45.442;9.212;2023-12-07T05:23:10;3.06;78.61
70170;DHT22;57543;45.442;9.212;2023-12-07T05:26:16;3.06;78.51
70170;DHT22;57543;45.442;9.212;2023-12-07T05:29:19;3.06;78.77
70170;DHT22;57543;45.442;9.212;2023-12-07T05:32:23;3.19;78.61
70170;DHT22;57543;45.442;9.212;2023-12-07T05:35:26;3.22;78.21
70170;DHT22;57543;45.442;9.212;2023-12-07T05:38:30;3.39;77.68
70170;DHT22;57543;45.442;9.212;2023-12-07T05:41:33;3.31;77.02
70170;DHT22;57543;45.442;9.212;2023-12-07T05:44:37;3.24;76.85
70170;DHT22;57543;45.442;9.212;2023-12-07T05:47:42;3.22;76.64
70170;DHT22;57543;45.442;9.212;2023-12-07T05:50:45;3.19;76.85
70170;DHT22;57543;45.442;9.212;2023-12-07T05:53:49;3.12;76.97
70170;DHT22;57543;45.442;9.212;2023-12-07T05:56:53;3.02;76.90
70170;DHT22;57543;45.442;9.212;2023-12-07T05:59:57;2.92;77.11
70170;DHT22;57543;45.442;9.212;2023-12-07T06:03:03;2.75;77.54
70170;DHT22;57543;45.442;9.212;2023-12-07T06:06:09;2.68;77.90
70170;DHT22;57543;45.442;9.212;2023-12-07T06:09:14;2.56;78.62
70170;DHT22;57543;45.442;9.212;2023-12-07T06:12:18;2.80;78.33
70170;DHT22;57543;45.442;9.212;2023-12-07T06:15:24;2.68;78.29
70170;DHT22;57543;45.442;9.212;2023-12-07T06:18:27;2.84;78.30
70170;DHT22;57543;45.442;9.212;2023-12-07T06:21:30;2.95;77.98
70170;DHT22;57543;45.442;9.212;2023-12-07T06:24:34;3.05;77.25
70170;DHT22;57543;45.442;9.212;2023-12-07T06:27:38;3.06;76.59
70170;DHT22;57543;45.442;9.212;2023-12-07T06:30:42;3.06;76.28
70170;DHT22;57543;45.442;9.212;2023-12-07T06:33:45;2.92;75.78
70170;DHT22;57543;45.442;9.212;2023-12-07T06:36:52;2.92;75.49
70170;DHT22;57543;45.442;9.212;2023-12-07T06:39:57;2.88;75.64
70170;DHT22;57543;45.442;9.212;2023-12-07T06:43:03;2.81;75.73
70170;DHT22;57543;45.442;9.212;2023-12-07T06:46:13;2.85;75.71
70170;DHT22;57543;45.442;9.212;2023-12-07T06:49:17;2.74;75.81
70170;DHT22;57543;45.442;9.212;2023-12-07T06:52:23;2.44;77.00
70170;DHT22;57543;45.442;9.212;2023-12-07T06:55:29;2.30;77.88
70170;DHT22;57543;45.442;9.212;2023-12-07T06:58:32;2.25;78.08
70170;DHT22;57543;45.442;9.212;2023-12-07T07:01:39;2.33;78.06
70170;DHT22;57543;45.442;9.212;2023-12-07T07:04:43;2.37;77.97
70170;DHT22;57543;45.442;9.212;2023-12-07T07:07:49;2.43;78.03
70170;DHT22;57543;45.442;9.212;2023-12-07T07:10:55;2.58;77.81
70170;DHT22;57543;45.442;9.212;2023-12-07T07:14:00;2.64;77.33
70170;DHT22;57543;45.442;9.212;2023-12-07T07:17:04;2.75;77.04
70170;DHT22;57543;45.442;9.212;2023-12-07T07:20:09;2.96;76.39
70170;DHT22;57543;45.442;9.212;2023-12-07T07:23:13;2.70;76.73
70170;DHT22;57543;45.442;9.212;2023-12-07T07:26:17;3.01;76.38
70170;DHT22;57543;45.442;9.212;2023-12-07T07:29:21;4.47;73.70
70170;DHT22;57543;45.442;9.212;2023-12-07T07:32:35;6.76;66.35
70170;DHT22;57543;45.442;9.212;2023-12-07T07:35:41;8.33;59.79
70170;DHT22;57543;45.442;9.212;2023-12-07T07:38:45;10.11;55.07
70170;DHT22;57543;45.442;9.212;2023-12-07T07:41:49;11.34;49.73
70170;DHT22;57543;45.442;9.212;2023-12-07T07:44:52;10.67;51.62
70170;DHT22;57543;45.442;9.212;2023-12-07T07:47:59;12.24;48.01
70170;DHT22;57543;45.442;9.212;2023-12-07T07:51:03;13.55;44.94
70170;DHT22;57543;45.442;9.212;2023-12-07T07:54:09;14.63;42.88
70170;DHT22;57543;45.442;9.212;2023-12-07T07:57:16;15.43;40.82
70170;DHT22;57543;45.442;9.212;2023-12-07T08:00:20;16.07;39.85
70170;DHT22;57543;45.442;9.212;2023-12-07T08:03:24;15.98;39.54
70170;DHT22;57543;45.442;9.212;2023-12-07T08:06:31;16.21;39.34
70170;DHT22;57543;45.442;9.212;2023-12-07T08:09:35;16.97;38.58
70170;DHT22;57543;45.442;9.212;2023-12-07T08:12:39;17.63;37.09
70170;DHT22;57543;45.442;9.212;2023-12-07T08:15:44;18.12;36.75
70170;DHT22;57543;45.442;9.212;2023-12-07T08:18:47;18.31;36.54
70170;DHT22;57543;45.442;9.212;2023-12-07T08:21:54;18.42;36.47
70170;DHT22;57543;45.442;9.212;2023-12-07T08:25:01;18.43;36.48
70170;DHT22;57543;45.442;9.212;2023-12-07T08:28:05;18.31;36.13
70170;DHT22;57543;45.442;9.212;2023-12-07T08:31:12;17.87;36.47
70170;DHT22;57543;45.442;9.212;2023-12-07T08:34:16;17.81;36.77
70170;DHT22;57543;45.442;9.212;2023-12-07T08:37:22;17.66;36.48
70170;DHT22;57543;45.442;9.212;2023-12-07T08:40:26;16.31;39.09
70170;DHT22;57543;45.442;9.212;2023-12-07T08:43:30;15.76;39.86
70170;DHT22;57543;45.442;9.212;2023-12-07T08:46:36;16.01;39.26
70170;DHT22;57543;45.442;9.212;2023-12-07T08:49:40;15.46;40.55
70170;DHT22;57543;45.442;9.212;2023-12-07T08:52:43;15.11;41.11
70170;DHT22;57543;45.442;9.212;2023-12-07T08:55:48;15.24;41.32
70170;DHT22;57543;45.442;9.212;2023-12-07T08:58:52;15.28;41.19
70170;DHT22;57543;45.442;9.212;2023-12-07T09:01:56;14.53;42.18
70170;DHT22;57543;45.442;9.212;2023-12-07T09:04:59;13.59;44.31
70170;DHT22;57543;45.442;9.212;2023-12-07T09:08:03;12.67;47.76
70170;DHT22;57543;45.442;9.212;2023-12-07T09:11:07;12.55;47.09
70170;DHT22;57543;45.442;9.212;2023-12-07T09:14:14;12.00;49.22
70170;DHT22;57543;45.442;9.212;2023-12-07T09:17:17;11.62;50.30
70170;DHT22;57543;45.442;9.212;2023-12-07T09:20:21;11.20;51.09
70170;DHT22;57543;45.442;9.212;2023-12-07T09:23:26;11.06;52.06
70170;DHT22;57543;45.442;9.212;2023-12-07T09:26:30;10.86;53.22
70170;DHT22;57543;45.442;9.212;2023-12-07T09:29:33;11.01;53.38
70170;DHT22;57543;45.442;9.212;2023-12-07T09:32:38;11.22;53.08
70170;DHT22;57543;45.442;9.212;2023-12-07T09:35:42;11.38;52.67
70170;DHT22;57543;45.442;9.212;2023-12-07T09:38:47;11.56;52.36
70170;DHT22;57543;45.442;9.212;2023-12-07T09:41:52;11.72;52.56
70170;DHT22;57543;45.442;9.212;2023-12-07T09:44:56;11.77;53.03
70170;DHT22;57543;45.442;9.212;2023-12-07T09:48:00;11.93;52.82
70170;DHT22;57543;45.442;9.212;2023-12-07T09:51:04;11.76;52.80
70170;DHT22;57543;45.442;9.212;2023-12-07T09:54:09;11.86;52.31
70170;DHT22;57543;45.442;9.212;2023-12-07T09:57:15;11.97;51.80
70170;DHT22;57543;45.442;9.212;2023-12-07T10:00:19;12.02;51.61
70170;DHT22;57543;45.442;9.212;2023-12-07T10:03:23;12.22;51.72
70170;DHT22;57543;45.442;9.212;2023-12-07T10:06:42;12.32;51.70
70170;DHT22;57543;45.442;9.212;2023-12-07T10:09:46;12.55;51.77
70170;DHT22;57543;45.442;9.212;2023-12-07T10:12:59;12.86;50.90
70170;DHT22;57543;45.442;9.212;2023-12-07T10:16:13;13.04;47.73
70170;DHT22;57543;45.442;9.212;2023-12-07T10:19:22;13.07;46.56
70170;DHT22;57543;45.442;9.212;2023-12-07T10:22:26;13.31;46.43
70170;DHT22;57543;45.442;9.212;2023-12-07T10:25:37;13.48;46.19
70170;DHT22;57543;45.442;9.212;2023-12-07T10:28:41;13.49;46.49
70170;DHT22;57543;45.442;9.212;2023-12-07T10:31:45;13.45;46.82
70170;DHT22;57543;45.442;9.212;2023-12-07T10:34:56;13.65;46.39
70170;DHT22;57543;45.442;9.212;2023-12-07T10:38:02;13.83;45.66
70170;DHT22;57543;45.442;9.212;2023-12-07T10:41:09;13.81;44.95
70170;DHT22;57543;45.442;9.212;2023-12-07T10:44:18;14.13;43.64
70170;DHT22;57543;45.442;9.212;2023-12-07T10:47:22;14.34;43.07
70170;DHT22;57543;45.442;9.212;2023-12-07T10:50:27;14.63;42.46
70170;DHT22;57543;45.442;9.212;2023-12-07T10:53:37;14.34;42.52
70170;DHT22;57543;45.442;9.212;2023-12-07T10:56:48;15.08;41.82
70170;DHT22;57543;45.442;9.212;2023-12-07T10:59:54;15.55;40.72
70170;DHT22;57543;45.442;9.212;2023-12-07T11:02:59;15.90;39.95
70170;DHT22;57543;45.442;9.212;2023-12-07T11:06:03;16.28;38.52
70170;DHT22;57543;45.442;9.212;2023-12-07T11:09:16;17.15;37.71
70170;DHT22;57543;45.442;9.212;2023-12-07T11:12:31;18.05;36.12
70170;DHT22;57543;45.442;9.212;2023-12-07T11:15:40;19.53;33.89
70170;DHT22;57543;45.442;9.212;2023-12-07T11:18:45;21.15;31.71
70170;DHT22;57543;45.442;9.212;2023-12-07T11:21:57;22.83;29.46
70170;DHT22;57543;45.442;9.212;2023-12-07T11:25:03;24.00;28.21
70170;DHT22;57543;45.442;9.212;2023-12-07T11:28:10;25.34;26.80
70170;DHT22;57543;45.442;9.212;2023-12-07T11:31:15;26.10;26.02
70170;DHT22;57543;45.442;9.212;2023-12-07T11:34:40;26.41;24.41
70170;DHT22;57543;45.442;9.212;2023-12-07T11:38:05;26.41;24.26
70170;DHT22;57543;45.442;9.212;2023-12-07T11:41:14;25.92;24.34
70170;DHT22;57543;45.442;9.212;2023-12-07T11:44:18;25.37;24.70
70170;DHT22;57543;45.442;9.212;2023-12-07T11:47:22;23.87;27.10
70170;DHT22;57543;45.442;9.212;2023-12-07T11:50:29;23.56;29.30
70170;DHT22;57543;45.442;9.212;2023-12-07T11:53:44;22.48;29.71
70170;DHT22;57543;45.442;9.212;2023-12-07T11:56:55;20.72;30.16
70170;DHT22;57543;45.442;9.212;2023-12-07T12:00:02;19.87;31.05
70170;DHT22;57543;45.442;9.212;2023-12-07T12:03:15;19.38;31.63
70170;DHT22;57543;45.442;9.212;2023-12-07T12:06:18;18.77;32.20
70170;DHT22;57543;45.442;9.212;2023-12-07T12:09:30;17.98;33.74
70170;DHT22;57543;45.442;9.212;2023-12-07T12:12:34;17.27;35.13
70170;DHT22;57543;45.442;9.212;2023-12-07T12:15:40;17.47;36.18
70170;DHT22;57543;45.442;9.212;2023-12-07T12:18:50;17.46;36.54
70170;DHT22;57543;45.442;9.212;2023-12-07T12:22:03;17.39;36.56
70170;DHT22;57543;45.442;9.212;2023-12-07T12:25:10;17.22;36.96
70170;DHT22;57543;45.442;9.212;2023-12-07T12:28:19;17.14;37.10
70170;DHT22;57543;45.442;9.212;2023-12-07T12:31:27;16.70;37.51
70170;DHT22;57543;45.442;9.212;2023-12-07T12:34:33;16.77;37.72
70170;DHT22;57543;45.442;9.212;2023-12-07T12:37:47;16.62;37.83
70170;DHT22;57543;45.442;9.212;2023-12-07T12:40:54;16.52;38.65
70170;DHT22;57543;45.442;9.212;2023-12-07T12:43:57;16.38;38.91
70170;DHT22;57543;45.442;9.212;2023-12-07T12:47:06;16.62;38.02
70170;DHT22;57543;45.442;9.212;2023-12-07T12:53:35;16.35;38.61
70170;DHT22;57543;45.442;9.212;2023-12-07T12:56:40;16.20;39.02
70170;DHT22;57543;45.442;9.212;2023-12-07T12:59:45;15.71;41.85
70170;DHT22;57543;45.442;9.212;2023-12-07T13:02:49;16.00;40.56
70170;DHT22;57543;45.442;9.212;2023-12-07T13:05:55;15.65;42.00
70170;DHT22;57543;45.442;9.212;2023-12-07T13:08:59;15.97;40.22
70170;DHT22;57543;45.442;9.212;2023-12-07T13:12:05;15.62;40.78
70170;DHT22;57543;45.442;9.212;2023-12-07T13:15:11;15.65;40.79
70170;DHT22;57543;45.442;9.212;2023-12-07T13:18:18;15.60;40.85
70170;DHT22;57543;45.442;9.212;2023-12-07T13:21:25;16.07;39.66
70170;DHT22;57543;45.442;9.212;2023-12-07T13:24:29;16.33;39.63
70170;DHT22;57543;45.442;9.212;2023-12-07T13:31:01;16.46;40.15
70170;DHT22;57543;45.442;9.212;2023-12-07T13:34:06;16.52;39.90
70170;DHT22;57543;45.442;9.212;2023-12-07T13:37:10;16.59;40.37
70170;DHT22;57543;45.442;9.212;2023-12-07T13:40:14;16.49;40.88
70170;DHT22;57543;45.442;9.212;2023-12-07T13:43:21;16.44;40.90
70170;DHT22;57543;45.442;9.212;2023-12-07T13:46:27;16.18;42.00
70170;DHT22;57543;45.442;9.212;2023-12-07T13:49:31;16.42;41.44
70170;DHT22;57543;45.442;9.212;2023-12-07T13:52:35;16.49;41.29
70170;DHT22;57543;45.442;9.212;2023-12-07T13:55:39;16.52;41.43
70170;DHT22;57543;45.442;9.212;2023-12-07T13:58:45;15.94;41.90
70170;DHT22;57543;45.442;9.212;2023-12-07T14:01:51;16.03;42.39
70170;DHT22;57543;45.442;9.212;2023-12-07T14:04:56;16.00;42.22
70170;DHT22;57543;45.442;9.212;2023-12-07T14:08:08;16.08;41.81
70170;DHT22;57543;45.442;9.212;2023-12-07T14:11:17;15.82;42.27
70170;DHT22;57543;45.442;9.212;2023-12-07T14:14:24;15.66;42.44
70170;DHT22;57543;45.442;9.212;2023-12-07T14:17:28;15.50;42.83
70170;DHT22;57543;45.442;9.212;2023-12-07T14:20:42;15.25;43.31
70170;DHT22;57543;45.442;9.212;2023-12-07T14:23:47;14.97;43.86
70170;DHT22;57543;45.442;9.212;2023-12-07T14:26:51;14.51;44.60
70170;DHT22;57543;45.442;9.212;2023-12-07T14:29:55;14.29;45.55
70170;DHT22;57543;45.442;9.212;2023-12-07T14:32:59;14.10;46.23
70170;DHT22;57543;45.442;9.212;2023-12-07T14:36:03;13.87;46.65
70170;DHT22;57543;45.442;9.212;2023-12-07T14:39:13;13.55;47.41
70170;DHT22;57543;45.442;9.212;2023-12-07T14:42:40;13.19;48.15
70170;DHT22;57543;45.442;9.212;2023-12-07T14:45:43;12.89;49.07
70170;DHT22;57543;45.442;9.212;2023-12-07T14:48:51;12.69;49.67
70170;DHT22;57543;45.442;9.212;2023-12-07T14:52:02;12.42;50.44
70170;DHT22;57543;45.442;9.212;2023-12-07T14:55:14;12.31;50.70
70170;DHT22;57543;45.442;9.212;2023-12-07T14:58:20;12.16;50.88
70170;DHT22;57543;45.442;9.212;2023-12-07T15:01:26;12.00;51.24
70170;DHT22;57543;45.442;9.212;2023-12-07T15:04:33;11.89;51.66
70170;DHT22;57543;45.442;9.212;2023-12-07T15:07:45;11.80;51.62
70170;DHT22;57543;45.442;9.212;2023-12-07T15:10:49;11.52;52.53
70170;DHT22;57543;45.442;9.212;2023-12-07T15:13:55;11.38;53.21
70170;DHT22;57543;45.442;9.212;2023-12-07T15:17:01;11.25;53.16
70170;DHT22;57543;45.442;9.212;2023-12-07T15:20:12;11.07;53.77
70170;DHT22;57543;45.442;9.212;2023-12-07T15:23:18;10.80;54.81
70170;DHT22;57543;45.442;9.212;2023-12-07T15:26:22;10.79;55.09
70170;DHT22;57543;45.442;9.212;2023-12-07T15:29:26;10.60;55.55
70170;DHT22;57543;45.442;9.212;2023-12-07T15:32:30;10.34;56.53
70170;DHT22;57543;45.442;9.212;2023-12-07T15:35:33;10.24;56.90
70170;DHT22;57543;45.442;9.212;2023-12-07T15:38:40;10.21;57.05
70170;DHT22;57543;45.442;9.212;2023-12-07T15:41:44;10.18;57.37
70170;DHT22;57543;45.442;9.212;2023-12-07T15:44:48;10.11;57.43
70170;DHT22;57543;45.442;9.212;2023-12-07T15:47:52;9.87;58.55
70170;DHT22;57543;45.442;9.212;2023-12-07T15:50:56;9.91;58.29
70170;DHT22;57543;45.442;9.212;2023-12-07T15:54:00;9.80;58.91
70170;DHT22;57543;45.442;9.212;2023-12-07T15:57:04;9.75;59.05
70170;DHT22;57543;45.442;9.212;2023-12-07T16:00:08;9.85;58.83
70170;DHT22;57543;45.442;9.212;2023-12-07T16:03:11;9.90;58.64
70170;DHT22;57543;45.442;9.212;2023-12-07T16:06:15;9.82;58.81
70170;DHT22;57543;45.442;9.212;2023-12-07T16:09:19;9.56;59.73
70170;DHT22;57543;45.442;9.212;2023-12-07T16:12:23;9.42;60.27
70170;DHT22;57543;45.442;9.212;2023-12-07T16:15:27;9.39;60.35
70170;DHT22;57543;45.442;9.212;2023-12-07T16:18:31;9.43;60.07
70170;DHT22;57543;45.442;9.212;2023-12-07T16:21:34;9.49;59.80
70170;DHT22;57543;45.442;9.212;2023-12-07T16:24:41;9.39;60.13
70170;DHT22;57543;45.442;9.212;2023-12-07T16:27:45;9.23;60.58
70170;DHT22;57543;45.442;9.212;2023-12-07T16:30:49;9.14;60.57
70170;DHT22;57543;45.442;9.212;2023-12-07T16:33:52;8.87;61.48
70170;DHT22;57543;45.442;9.212;2023-12-07T16:36:56;8.79;62.21
70170;DHT22;57543;45.442;9.212;2023-12-07T16:40:00;8.62;62.87
70170;DHT22;57543;45.442;9.212;2023-12-07T16:43:03;8.48;63.22
70170;DHT22;57543;45.442;9.212;2023-12-07T16:46:10;8.41;63.58
70170;DHT22;57543;45.442;9.212;2023-12-07T16:49:14;8.37;64.03
70170;DHT22;57543;45.442;9.212;2023-12-07T16:52:20;8.28;64.10
70170;DHT22;57543;45.442;9.212;2023-12-07T16:55:24;8.28;63.96
70170;DHT22;57543;45.442;9.212;2023-12-07T16:58:32;8.18;64.26
70170;DHT22;57543;45.442;9.212;2023-12-07T17:01:36;8.08;64.69
70170;DHT22;57543;45.442;9.212;2023-12-07T17:04:43;7.99;64.80
70170;DHT22;57543;45.442;9.212;2023-12-07T17:07:46;7.86;65.05
70170;DHT22;57543;45.442;9.212;2023-12-07T17:10:51;7.86;65.17
70170;DHT22;57543;45.442;9.212;2023-12-07T17:13:55;7.82;65.27
70170;DHT22;57543;45.442;9.212;2023-12-07T17:16:59;7.83;65.32
70170;DHT22;57543;45.442;9.212;2023-12-07T17:20:03;7.82;65.32
70170;DHT22;57543;45.442;9.212;2023-12-07T17:23:10;7.79;65.69
70170;DHT22;57543;45.442;9.212;2023-12-07T17:26:13;7.76;65.76
70170;DHT22;57543;45.442;9.212;2023-12-07T17:29:21;7.61;65.92
70170;DHT22;57543;45.442;9.212;2023-12-07T17:32:25;7.59;65.91
70170;DHT22;57543;45.442;9.212;2023-12-07T17:35:29;7.58;65.90
70170;DHT22;57543;45.442;9.212;2023-12-07T17:38:33;7.56;65.92
70170;DHT22;57543;45.442;9.212;2023-12-07T17:41:37;7.48;66.09
70170;DHT22;57543;45.442;9.212;2023-12-07T17:44:43;7.48;66.13
70170;DHT22;57543;45.442;9.212;2023-12-07T17:47:47;7.50;65.96
70170;DHT22;57543;45.442;9.212;2023-12-07T17:50:52;7.48;65.91
70170;DHT22;57543;45.442;9.212;2023-12-07T17:53:58;7.50;66.07
70170;DHT22;57543;45.442;9.212;2023-12-07T17:57:02;7.54;66.02
70170;DHT22;57543;45.442;9.212;2023-12-07T18:00:05;7.52;66.15
70170;DHT22;57543;45.442;9.212;2023-12-07T18:03:12;7.58;66.09
70170;DHT22;57543;45.442;9.212;2023-12-07T18:06:16;7.59;65.95
70170;DHT22;57543;45.442;9.212;2023-12-07T18:09:22;7.56;65.94
70170;DHT22;57543;45.442;9.212;2023-12-07T18:12:25;7.52;66.10
70170;DHT22;57543;45.442;9.212;2023-12-07T18:15:29;7.44;66.38
70170;DHT22;57543;45.442;9.212;2023-12-07T18:18:33;7.35;66.65
70170;DHT22;57543;45.442;9.212;2023-12-07T18:21:36;7.31;66.83
70170;DHT22;57543;45.442;9.212;2023-12-07T18:24:43;7.31;67.14
70170;DHT22;57543;45.442;9.212;2023-12-07T18:27:47;7.27;67.18
70170;DHT22;57543;45.442;9.212;2023-12-07T18:30:54;7.23;67.48
70170;DHT22;57543;45.442;9.212;2023-12-07T18:33:57;7.13;67.44
70170;DHT22;57543;45.442;9.212;2023-12-07T18:37:01;7.17;67.34
70170;DHT22;57543;45.442;9.212;2023-12-07T18:40:06;7.04;67.67
70170;DHT22;57543;45.442;9.212;2023-12-07T18:43:18;7.04;67.83
70170;DHT22;57543;45.442;9.212;2023-12-07T18:46:28;7.04;67.94
70170;DHT22;57543;45.442;9.212;2023-12-07T18:49:32;6.99;68.10
70170;DHT22;57543;45.442;9.212;2023-12-07T18:52:39;6.96;68.24
70170;DHT22;57543;45.442;9.212;2023-12-07T18:55:45;6.86;68.48
70170;DHT22;57543;45.442;9.212;2023-12-07T18:58:48;6.86;68.47
70170;DHT22;57543;45.442;9.212;2023-12-07T19:01:52;6.86;68.66
70170;DHT22;57543;45.442;9.212;2023-12-07T19:04:56;6.86;68.79
70170;DHT22;57543;45.442;9.212;2023-12-07T19:08:02;6.95;68.60
70170;DHT22;57543;45.442;9.212;2023-12-07T19:11:09;6.93;68.64
70170;DHT22;57543;45.442;9.212;2023-12-07T19:14:18;6.93;68.65
70170;DHT22;57543;45.442;9.212;2023-12-07T19:17:22;6.96;68.71
70170;DHT22;57543;45.442;9.212;2023-12-07T19:20:27;6.92;68.93
70170;DHT22;57543;45.442;9.212;2023-12-07T19:23:31;6.89;69.18
70170;DHT22;57543;45.442;9.212;2023-12-07T19:26:37;6.90;69.14
70170;DHT22;57543;45.442;9.212;2023-12-07T19:29:43;6.93;69.32
70170;DHT22;57543;45.442;9.212;2023-12-07T19:32:46;6.90;69.89
70170;DHT22;57543;45.442;9.212;2023-12-07T19:35:51;6.92;70.01
70170;DHT22;57543;45.442;9.212;2023-12-07T19:38:54;6.96;69.87
70170;DHT22;57543;45.442;9.212;2023-12-07T19:41:58;6.95;69.67
70170;DHT22;57543;45.442;9.212;2023-12-07T19:45:03;6.92;69.75
70170;DHT22;57543;45.442;9.212;2023-12-07T19:48:10;6.83;69.67
70170;DHT22;57543;45.442;9.212;2023-12-07T19:51:19;6.81;69.93